sensor_id;sensor_type;location;lat;lon;timestamp;P1;durP1;ratioP1;P2;durP2;ratioP2
37339;SDS011;23223;51.006;7.610;2024-03-22T00:00:44;17.77;;;13.65;;
37339;SDS011;23223;51.006;7.610;2024-03-22T00:03:10;16.05;;;12.55;;
37339;SDS011;23223;51.006;7.610;2024-03-22T00:05:35;17.08;;;12.65;;
37339;SDS011;23223;51.006;7.610;2024-03-22T00:08:01;20.20;;;13.98;;
37339;SDS011;23223;51.006;7.610;2024-03-22T00:10:27;18.65;;;11.98;;
37339;SDS011;23223;51.006;7.610;2024-03-22T00:12:52;20.27;;;14.20;;
37339;SDS011;23223;51.006;7.610;2024-03-22T00:15:18;19.42;;;13.25;;
37339;SDS011;23223;51.006;7.610;2024-03-22T00:17:44;18.30;;;13.98;;
37339;SDS011;23223;51.006;7.610;2024-03-22T00:20:10;18.75;;;13.73;;
37339;SDS011;23223;51.006;7.610;2024-03-22T00:22:36;30.02;;;13.98;;
37339;SDS011;23223;51.006;7.610;2024-03-22T00:25:01;20.08;;;14.65;;
37339;SDS011;23223;51.006;7.610;2024-03-22T00:27:27;21.10;;;14.65;;
37339;SDS011;23223;51.006;7.610;2024-03-22T00:29:53;18.90;;;13.63;;
37339;SDS011;23223;51.006;7.610;2024-03-22T00:32:18;25.17;;;14.88;;
37339;SDS011;23223;51.006;7.610;2024-03-22T00:34:44;19.48;;;13.70;;
37339;SDS011;23223;51.006;7.610;2024-03-22T00:37:10;20.27;;;12.80;;
37339;SDS011;23223;51.006;7.610;2024-03-22T00:39:36;23.88;;;13.77;;
37339;SDS011;23223;51.006;7.610;2024-03-22T00:42:01;26.45;;;13.90;;
37339;SDS011;23223;51.006;7.610;2024-03-22T00:44:27;20.77;;;13.68;;
37339;SDS011;23223;51.006;7.610;2024-03-22T00:46:52;22.75;;;14.18;;
37339;SDS011;23223;51.006;7.610;2024-03-22T00:49:18;27.63;;;13.52;;
37339;SDS011;23223;51.006;7.610;2024-03-22T00:51:44;26.33;;;14.70;;
37339;SDS011;23223;51.006;7.610;2024-03-22T00:54:10;33.03;;;16.90;;
37339;SDS011;23223;51.006;7.610;2024-03-22T00:56:35;23.48;;;15.45;;
37339;SDS011;23223;51.006;7.610;2024-03-22T00:59:01;24.23;;;14.93;;
37339;SDS011;23223;51.006;7.610;2024-03-22T01:01:27;23.23;;;13.85;;
37339;SDS011;23223;51.006;7.610;2024-03-22T01:03:52;14.85;;;10.88;;
37339;SDS011;23223;51.006;7.610;2024-03-22T01:06:18;30.80;;;14.75;;
37339;SDS011;23223;51.006;7.610;2024-03-22T01:08:48;20.90;;;13.85;;
37339;SDS011;23223;51.006;7.610;2024-03-22T01:11:14;18.08;;;12.70;;
37339;SDS011;23223;51.006;7.610;2024-03-22T01:13:40;23.48;;;14.18;;
37339;SDS011;23223;51.006;7.610;2024-03-22T01:16:05;22.75;;;13.07;;
37339;SDS011;23223;51.006;7.610;2024-03-22T01:18:34;17.88;;;12.90;;
37339;SDS011;23223;51.006;7.610;2024-03-22T01:21:00;21.77;;;13.82;;
37339;SDS011;23223;51.006;7.610;2024-03-22T01:23:26;22.25;;;13.07;;
37339;SDS011;23223;51.006;7.610;2024-03-22T01:25:51;26.00;;;14.23;;
37339;SDS011;23223;51.006;7.610;2024-03-22T01:28:17;24.75;;;14.13;;
37339;SDS011;23223;51.006;7.610;2024-03-22T01:30:42;24.55;;;16.23;;
37339;SDS011;23223;51.006;7.610;2024-03-22T01:33:09;24.27;;;14.27;;
37339;SDS011;23223;51.006;7.610;2024-03-22T01:35:34;23.23;;;13.60;;
37339;SDS011;23223;51.006;7.610;2024-03-22T01:38:00;23.90;;;15.15;;
37339;SDS011;23223;51.006;7.610;2024-03-22T01:40:25;18.40;;;13.63;;
37339;SDS011;23223;51.006;7.610;2024-03-22T01:42:57;21.38;;;14.38;;
37339;SDS011;23223;51.006;7.610;2024-03-22T01:45:23;23.15;;;13.60;;
37339;SDS011;23223;51.006;7.610;2024-03-22T01:47:52;21.08;;;14.63;;
37339;SDS011;23223;51.006;7.610;2024-03-22T01:50:19;25.27;;;14.55;;
37339;SDS011;23223;51.006;7.610;2024-03-22T01:52:46;23.02;;;14.02;;
37339;SDS011;23223;51.006;7.610;2024-03-22T01:55:12;22.65;;;14.38;;
37339;SDS011;23223;51.006;7.610;2024-03-22T01:57:38;22.13;;;15.50;;
37339;SDS011;23223;51.006;7.610;2024-03-22T02:00:05;23.35;;;15.18;;
37339;SDS011;23223;51.006;7.610;2024-03-22T02:02:33;25.08;;;16.15;;
37339;SDS011;23223;51.006;7.610;2024-03-22T02:04:59;23.02;;;15.88;;
37339;SDS011;23223;51.006;7.610;2024-03-22T02:07:24;31.38;;;16.35;;
37339;SDS011;23223;51.006;7.610;2024-03-22T02:09:54;23.80;;;16.35;;
37339;SDS011;23223;51.006;7.610;2024-03-22T02:12:20;23.35;;;15.27;;
37339;SDS011;23223;51.006;7.610;2024-03-22T02:14:46;26.45;;;16.98;;
37339;SDS011;23223;51.006;7.610;2024-03-22T02:17:11;28.38;;;16.55;;
37339;SDS011;23223;51.006;7.610;2024-03-22T02:19:37;26.83;;;17.27;;
37339;SDS011;23223;51.006;7.610;2024-03-22T02:22:02;25.73;;;16.25;;
37339;SDS011;23223;51.006;7.610;2024-03-22T02:24:28;27.48;;;16.42;;
37339;SDS011;23223;51.006;7.610;2024-03-22T02:26:53;22.30;;;12.55;;
37339;SDS011;23223;51.006;7.610;2024-03-22T02:29:19;25.15;;;15.63;;
37339;SDS011;23223;51.006;7.610;2024-03-22T02:31:44;15.10;;;10.52;;
37339;SDS011;23223;51.006;7.610;2024-03-22T02:34:10;26.08;;;16.65;;
37339;SDS011;23223;51.006;7.610;2024-03-22T02:36:36;25.38;;;15.93;;
37339;SDS011;23223;51.006;7.610;2024-03-22T02:39:01;23.27;;;15.13;;
37339;SDS011;23223;51.006;7.610;2024-03-22T02:41:27;28.02;;;17.88;;
37339;SDS011;23223;51.006;7.610;2024-03-22T02:43:52;26.02;;;16.23;;
37339;SDS011;23223;51.006;7.610;2024-03-22T02:46:18;26.92;;;15.88;;
37339;SDS011;23223;51.006;7.610;2024-03-22T02:48:43;26.55;;;17.02;;
37339;SDS011;23223;51.006;7.610;2024-03-22T02:51:09;26.02;;;16.33;;
37339;SDS011;23223;51.006;7.610;2024-03-22T02:53:34;29.48;;;16.75;;
37339;SDS011;23223;51.006;7.610;2024-03-22T02:56:00;22.75;;;16.60;;
37339;SDS011;23223;51.006;7.610;2024-03-22T02:58:26;32.03;;;16.25;;
37339;SDS011;23223;51.006;7.610;2024-03-22T03:00:51;26.15;;;16.90;;
37339;SDS011;23223;51.006;7.610;2024-03-22T03:03:17;23.27;;;14.57;;
37339;SDS011;23223;51.006;7.610;2024-03-22T03:05:42;24.60;;;15.27;;
37339;SDS011;23223;51.006;7.610;2024-03-22T03:08:09;24.80;;;15.40;;
37339;SDS011;23223;51.006;7.610;2024-03-22T03:10:34;28.17;;;16.02;;
37339;SDS011;23223;51.006;7.610;2024-03-22T03:13:00;29.58;;;17.35;;
37339;SDS011;23223;51.006;7.610;2024-03-22T03:15:26;29.75;;;16.20;;
37339;SDS011;23223;51.006;7.610;2024-03-22T03:17:52;33.72;;;16.23;;
37339;SDS011;23223;51.006;7.610;2024-03-22T03:20:17;29.23;;;16.55;;
37339;SDS011;23223;51.006;7.610;2024-03-22T03:22:43;27.33;;;17.00;;
37339;SDS011;23223;51.006;7.610;2024-03-22T03:25:09;33.33;;;16.05;;
37339;SDS011;23223;51.006;7.610;2024-03-22T03:27:34;24.48;;;16.05;;
37339;SDS011;23223;51.006;7.610;2024-03-22T03:30:00;26.50;;;16.08;;
37339;SDS011;23223;51.006;7.610;2024-03-22T03:32:27;20.63;;;14.70;;
37339;SDS011;23223;51.006;7.610;2024-03-22T03:34:53;25.40;;;16.15;;
37339;SDS011;23223;51.006;7.610;2024-03-22T03:37:19;25.13;;;15.90;;
37339;SDS011;23223;51.006;7.610;2024-03-22T03:39:44;26.15;;;17.17;;
37339;SDS011;23223;51.006;7.610;2024-03-22T03:42:10;26.38;;;16.80;;
37339;SDS011;23223;51.006;7.610;2024-03-22T03:44:36;29.73;;;16.90;;
37339;SDS011;23223;51.006;7.610;2024-03-22T03:47:02;27.42;;;17.70;;
37339;SDS011;23223;51.006;7.610;2024-03-22T03:49:27;27.05;;;17.15;;
37339;SDS011;23223;51.006;7.610;2024-03-22T03:51:53;30.70;;;17.05;;
37339;SDS011;23223;51.006;7.610;2024-03-22T03:54:19;35.30;;;17.00;;
37339;SDS011;23223;51.006;7.610;2024-03-22T03:56:44;29.48;;;16.63;;
37339;SDS011;23223;51.006;7.610;2024-03-22T03:59:10;30.85;;;16.30;;
37339;SDS011;23223;51.006;7.610;2024-03-22T04:01:35;31.58;;;16.83;;
37339;SDS011;23223;51.006;7.610;2024-03-22T04:04:02;29.77;;;16.75;;
37339;SDS011;23223;51.006;7.610;2024-03-22T04:06:28;25.25;;;17.02;;
37339;SDS011;23223;51.006;7.610;2024-03-22T04:08:53;19.10;;;13.05;;
37339;SDS011;23223;51.006;7.610;2024-03-22T04:11:19;27.70;;;16.45;;
37339;SDS011;23223;51.006;7.610;2024-03-22T04:13:44;29.60;;;16.75;;
37339;SDS011;23223;51.006;7.610;2024-03-22T04:16:10;22.73;;;14.85;;
37339;SDS011;23223;51.006;7.610;2024-03-22T04:18:36;22.38;;;15.27;;
37339;SDS011;23223;51.006;7.610;2024-03-22T04:21:01;23.88;;;15.32;;
37339;SDS011;23223;51.006;7.610;2024-03-22T04:23:27;29.42;;;16.55;;
37339;SDS011;23223;51.006;7.610;2024-03-22T04:25:56;27.40;;;15.95;;
37339;SDS011;23223;51.006;7.610;2024-03-22T04:28:23;26.40;;;16.35;;
37339;SDS011;23223;51.006;7.610;2024-03-22T04:30:59;26.35;;;16.30;;
37339;SDS011;23223;51.006;7.610;2024-03-22T04:33:29;27.85;;;16.88;;
37339;SDS011;23223;51.006;7.610;2024-03-22T04:35:56;27.40;;;17.60;;
37339;SDS011;23223;51.006;7.610;2024-03-22T04:38:23;32.47;;;18.33;;
37339;SDS011;23223;51.006;7.610;2024-03-22T04:40:49;31.33;;;17.45;;
37339;SDS011;23223;51.006;7.610;2024-03-22T04:43:15;32.63;;;19.08;;
37339;SDS011;23223;51.006;7.610;2024-03-22T04:45:44;28.50;;;17.13;;
37339;SDS011;23223;51.006;7.610;2024-03-22T04:48:12;25.17;;;14.45;;
37339;SDS011;23223;51.006;7.610;2024-03-22T04:50:38;28.35;;;17.20;;
37339;SDS011;23223;51.006;7.610;2024-03-22T04:53:04;31.63;;;19.30;;
37339;SDS011;23223;51.006;7.610;2024-03-22T04:55:30;30.83;;;18.88;;
37339;SDS011;23223;51.006;7.610;2024-03-22T04:57:57;30.55;;;19.42;;
37339;SDS011;23223;51.006;7.610;2024-03-22T05:00:23;34.95;;;19.10;;
37339;SDS011;23223;51.006;7.610;2024-03-22T05:02:50;39.60;;;19.58;;
37339;SDS011;23223;51.006;7.610;2024-03-22T05:05:16;34.05;;;18.90;;
37339;SDS011;23223;51.006;7.610;2024-03-22T05:07:42;33.97;;;20.42;;
37339;SDS011;23223;51.006;7.610;2024-03-22T05:10:07;35.17;;;19.63;;
37339;SDS011;23223;51.006;7.610;2024-03-22T05:12:34;31.08;;;18.23;;
37339;SDS011;23223;51.006;7.610;2024-03-22T05:15:00;35.55;;;19.63;;
37339;SDS011;23223;51.006;7.610;2024-03-22T05:17:27;35.20;;;20.50;;
37339;SDS011;23223;51.006;7.610;2024-03-22T05:19:54;37.65;;;19.73;;
37339;SDS011;23223;51.006;7.610;2024-03-22T05:22:20;32.30;;;19.48;;
37339;SDS011;23223;51.006;7.610;2024-03-22T05:24:45;36.67;;;20.42;;
37339;SDS011;23223;51.006;7.610;2024-03-22T05:27:11;34.67;;;19.45;;
37339;SDS011;23223;51.006;7.610;2024-03-22T05:29:37;29.20;;;17.73;;
37339;SDS011;23223;51.006;7.610;2024-03-22T05:32:03;33.85;;;19.77;;
37339;SDS011;23223;51.006;7.610;2024-03-22T05:34:29;34.05;;;21.05;;
37339;SDS011;23223;51.006;7.610;2024-03-22T05:36:55;32.83;;;18.65;;
37339;SDS011;23223;51.006;7.610;2024-03-22T05:39:20;35.90;;;21.17;;
37339;SDS011;23223;51.006;7.610;2024-03-22T05:41:46;39.22;;;22.08;;
37339;SDS011;23223;51.006;7.610;2024-03-22T05:44:11;24.83;;;14.55;;
37339;SDS011;23223;51.006;7.610;2024-03-22T05:46:37;25.13;;;13.07;;
37339;SDS011;23223;51.006;7.610;2024-03-22T05:49:02;24.13;;;12.88;;
37339;SDS011;23223;51.006;7.610;2024-03-22T05:51:28;35.28;;;20.88;;
37339;SDS011;23223;51.006;7.610;2024-03-22T05:53:55;34.13;;;20.23;;
37339;SDS011;23223;51.006;7.610;2024-03-22T05:56:22;38.42;;;19.20;;
37339;SDS011;23223;51.006;7.610;2024-03-22T05:58:47;39.65;;;20.35;;
37339;SDS011;23223;51.006;7.610;2024-03-22T06:01:13;33.53;;;20.83;;
37339;SDS011;23223;51.006;7.610;2024-03-22T06:03:38;33.75;;;20.63;;
37339;SDS011;23223;51.006;7.610;2024-03-22T06:06:04;37.63;;;21.10;;
37339;SDS011;23223;51.006;7.610;2024-03-22T06:08:30;35.35;;;21.00;;
37339;SDS011;23223;51.006;7.610;2024-03-22T06:11:04;37.03;;;20.77;;
37339;SDS011;23223;51.006;7.610;2024-03-22T06:13:32;21.17;;;12.75;;
37339;SDS011;23223;51.006;7.610;2024-03-22T06:15:58;35.30;;;18.67;;
37339;SDS011;23223;51.006;7.610;2024-03-22T06:18:23;35.80;;;19.48;;
37339;SDS011;23223;51.006;7.610;2024-03-22T06:20:49;33.65;;;19.23;;
37339;SDS011;23223;51.006;7.610;2024-03-22T06:23:14;34.42;;;20.30;;
37339;SDS011;23223;51.006;7.610;2024-03-22T06:25:40;33.30;;;20.77;;
37339;SDS011;23223;51.006;7.610;2024-03-22T06:28:06;36.58;;;20.23;;
37339;SDS011;23223;51.006;7.610;2024-03-22T06:30:31;35.20;;;20.15;;
37339;SDS011;23223;51.006;7.610;2024-03-22T06:32:57;31.70;;;18.48;;
37339;SDS011;23223;51.006;7.610;2024-03-22T06:35:22;27.83;;;16.92;;
37339;SDS011;23223;51.006;7.610;2024-03-22T06:37:48;24.83;;;14.93;;
37339;SDS011;23223;51.006;7.610;2024-03-22T06:40:14;29.20;;;17.83;;
37339;SDS011;23223;51.006;7.610;2024-03-22T06:42:40;34.05;;;20.27;;
37339;SDS011;23223;51.006;7.610;2024-03-22T06:45:06;36.53;;;19.65;;
37339;SDS011;23223;51.006;7.610;2024-03-22T06:47:32;35.65;;;19.60;;
37339;SDS011;23223;51.006;7.610;2024-03-22T06:49:57;31.58;;;19.85;;
37339;SDS011;23223;51.006;7.610;2024-03-22T06:52:23;30.08;;;20.20;;
37339;SDS011;23223;51.006;7.610;2024-03-22T06:54:49;22.85;;;15.05;;
37339;SDS011;23223;51.006;7.610;2024-03-22T06:57:14;29.48;;;19.73;;
37339;SDS011;23223;51.006;7.610;2024-03-22T06:59:40;31.15;;;20.13;;
37339;SDS011;23223;51.006;7.610;2024-03-22T07:02:05;32.03;;;20.70;;
37339;SDS011;23223;51.006;7.610;2024-03-22T07:04:31;37.75;;;21.23;;
37339;SDS011;23223;51.006;7.610;2024-03-22T07:06:57;40.15;;;22.08;;
37339;SDS011;23223;51.006;7.610;2024-03-22T07:09:22;35.50;;;19.92;;
37339;SDS011;23223;51.006;7.610;2024-03-22T07:11:48;33.85;;;20.05;;
37339;SDS011;23223;51.006;7.610;2024-03-22T07:14:13;35.83;;;20.55;;
37339;SDS011;23223;51.006;7.610;2024-03-22T07:16:39;34.75;;;20.02;;
37339;SDS011;23223;51.006;7.610;2024-03-22T07:19:04;31.23;;;18.20;;
37339;SDS011;23223;51.006;7.610;2024-03-22T07:21:30;38.17;;;20.27;;
37339;SDS011;23223;51.006;7.610;2024-03-22T07:23:56;32.45;;;19.30;;
37339;SDS011;23223;51.006;7.610;2024-03-22T07:26:22;35.03;;;18.85;;
37339;SDS011;23223;51.006;7.610;2024-03-22T07:28:47;35.20;;;20.25;;
37339;SDS011;23223;51.006;7.610;2024-03-22T07:31:13;15.75;;;9.70;;
37339;SDS011;23223;51.006;7.610;2024-03-22T07:33:39;35.13;;;20.27;;
37339;SDS011;23223;51.006;7.610;2024-03-22T07:36:05;28.95;;;18.60;;
37339;SDS011;23223;51.006;7.610;2024-03-22T07:38:31;36.42;;;18.67;;
37339;SDS011;23223;51.006;7.610;2024-03-22T07:40:57;34.78;;;20.70;;
37339;SDS011;23223;51.006;7.610;2024-03-22T07:43:22;31.42;;;19.00;;
37339;SDS011;23223;51.006;7.610;2024-03-22T07:45:48;30.52;;;19.02;;
37339;SDS011;23223;51.006;7.610;2024-03-22T07:48:13;33.05;;;17.63;;
37339;SDS011;23223;51.006;7.610;2024-03-22T07:50:39;28.15;;;16.23;;
37339;SDS011;23223;51.006;7.610;2024-03-22T07:53:04;35.67;;;18.42;;
37339;SDS011;23223;51.006;7.610;2024-03-22T07:55:30;19.33;;;12.55;;
37339;SDS011;23223;51.006;7.610;2024-03-22T07:57:55;24.77;;;13.52;;
37339;SDS011;23223;51.006;7.610;2024-03-22T08:00:22;18.38;;;12.23;;
37339;SDS011;23223;51.006;7.610;2024-03-22T08:02:50;23.42;;;13.52;;
37339;SDS011;23223;51.006;7.610;2024-03-22T08:05:16;25.85;;;14.52;;
37339;SDS011;23223;51.006;7.610;2024-03-22T08:07:41;28.48;;;12.80;;
37339;SDS011;23223;51.006;7.610;2024-03-22T08:10:08;23.98;;;12.68;;
37339;SDS011;23223;51.006;7.610;2024-03-22T08:12:34;21.73;;;11.18;;
37339;SDS011;23223;51.006;7.610;2024-03-22T08:15:00;15.20;;;10.88;;
37339;SDS011;23223;51.006;7.610;2024-03-22T08:17:25;17.67;;;9.50;;
37339;SDS011;23223;51.006;7.610;2024-03-22T08:19:51;20.77;;;9.65;;
37339;SDS011;23223;51.006;7.610;2024-03-22T08:22:16;11.13;;;8.05;;
37339;SDS011;23223;51.006;7.610;2024-03-22T08:24:42;15.50;;;9.48;;
37339;SDS011;23223;51.006;7.610;2024-03-22T08:27:07;7.82;;;3.65;;
37339;SDS011;23223;51.006;7.610;2024-03-22T08:29:33;10.90;;;6.93;;
37339;SDS011;23223;51.006;7.610;2024-03-22T08:31:59;19.73;;;10.63;;
37339;SDS011;23223;51.006;7.610;2024-03-22T08:34:24;10.52;;;6.15;;
37339;SDS011;23223;51.006;7.610;2024-03-22T08:36:50;13.85;;;8.15;;
37339;SDS011;23223;51.006;7.610;2024-03-22T08:39:15;15.52;;;9.88;;
37339;SDS011;23223;51.006;7.610;2024-03-22T08:41:41;12.43;;;7.35;;
37339;SDS011;23223;51.006;7.610;2024-03-22T08:44:06;14.63;;;9.50;;
37339;SDS011;23223;51.006;7.610;2024-03-22T08:46:32;12.48;;;8.60;;
37339;SDS011;23223;51.006;7.610;2024-03-22T08:48:58;28.85;;;12.45;;
37339;SDS011;23223;51.006;7.610;2024-03-22T08:51:23;14.55;;;10.23;;
37339;SDS011;23223;51.006;7.610;2024-03-22T08:53:49;18.52;;;10.90;;
37339;SDS011;23223;51.006;7.610;2024-03-22T08:56:15;13.50;;;8.05;;
37339;SDS011;23223;51.006;7.610;2024-03-22T08:58:41;10.57;;;6.97;;
37339;SDS011;23223;51.006;7.610;2024-03-22T09:01:06;11.98;;;7.55;;
37339;SDS011;23223;51.006;7.610;2024-03-22T09:03:34;14.10;;;8.57;;
37339;SDS011;23223;51.006;7.610;2024-03-22T09:06:00;18.02;;;11.13;;
37339;SDS011;23223;51.006;7.610;2024-03-22T09:08:26;16.23;;;10.98;;
37339;SDS011;23223;51.006;7.610;2024-03-22T09:10:54;14.52;;;9.80;;
37339;SDS011;23223;51.006;7.610;2024-03-22T09:13:19;10.68;;;7.80;;
37339;SDS011;23223;51.006;7.610;2024-03-22T09:15:45;14.00;;;7.65;;
37339;SDS011;23223;51.006;7.610;2024-03-22T09:18:10;8.50;;;5.20;;
37339;SDS011;23223;51.006;7.610;2024-03-22T09:20:36;14.50;;;8.43;;
37339;SDS011;23223;51.006;7.610;2024-03-22T09:23:02;8.82;;;5.07;;
37339;SDS011;23223;51.006;7.610;2024-03-22T09:25:29;10.32;;;5.78;;
37339;SDS011;23223;51.006;7.610;2024-03-22T09:27:54;14.75;;;8.05;;
37339;SDS011;23223;51.006;7.610;2024-03-22T09:30:20;11.02;;;7.15;;
37339;SDS011;23223;51.006;7.610;2024-03-22T09:32:46;17.45;;;8.18;;
37339;SDS011;23223;51.006;7.610;2024-03-22T09:35:12;14.73;;;9.35;;
37339;SDS011;23223;51.006;7.610;2024-03-22T09:37:39;18.65;;;11.27;;
37339;SDS011;23223;51.006;7.610;2024-03-22T09:40:06;14.65;;;9.55;;
37339;SDS011;23223;51.006;7.610;2024-03-22T09:42:32;14.35;;;8.32;;
37339;SDS011;23223;51.006;7.610;2024-03-22T09:45:01;11.15;;;6.85;;
37339;SDS011;23223;51.006;7.610;2024-03-22T09:47:27;17.95;;;10.02;;
37339;SDS011;23223;51.006;7.610;2024-03-22T09:49:53;15.38;;;6.93;;
37339;SDS011;23223;51.006;7.610;2024-03-22T09:52:20;16.55;;;8.07;;
37339;SDS011;23223;51.006;7.610;2024-03-22T09:54:46;9.93;;;6.90;;
37339;SDS011;23223;51.006;7.610;2024-03-22T09:57:15;9.63;;;5.45;;
37339;SDS011;23223;51.006;7.610;2024-03-22T09:59:44;18.90;;;6.13;;
37339;SDS011;23223;51.006;7.610;2024-03-22T10:02:11;10.63;;;6.88;;
37339;SDS011;23223;51.006;7.610;2024-03-22T10:04:37;10.75;;;5.85;;
37339;SDS011;23223;51.006;7.610;2024-03-22T10:07:03;11.10;;;8.10;;
37339;SDS011;23223;51.006;7.610;2024-03-22T10:09:30;11.30;;;7.40;;
37339;SDS011;23223;51.006;7.610;2024-03-22T10:11:56;8.82;;;4.18;;
37339;SDS011;23223;51.006;7.610;2024-03-22T10:14:22;13.48;;;8.40;;
37339;SDS011;23223;51.006;7.610;2024-03-22T10:16:50;11.07;;;7.95;;
37339;SDS011;23223;51.006;7.610;2024-03-22T10:19:20;11.35;;;4.72;;
37339;SDS011;23223;51.006;7.610;2024-03-22T10:21:46;11.32;;;5.80;;
37339;SDS011;23223;51.006;7.610;2024-03-22T10:24:13;10.00;;;6.57;;
37339;SDS011;23223;51.006;7.610;2024-03-22T10:26:39;4.32;;;2.78;;
37339;SDS011;23223;51.006;7.610;2024-03-22T10:29:08;16.80;;;7.22;;
37339;SDS011;23223;51.006;7.610;2024-03-22T10:31:34;10.02;;;4.88;;
37339;SDS011;23223;51.006;7.610;2024-03-22T10:34:02;8.32;;;3.35;;
37339;SDS011;23223;51.006;7.610;2024-03-22T10:36:31;7.90;;;4.95;;
37339;SDS011;23223;51.006;7.610;2024-03-22T10:38:58;5.68;;;4.13;;
37339;SDS011;23223;51.006;7.610;2024-03-22T10:41:25;5.28;;;3.95;;
37339;SDS011;23223;51.006;7.610;2024-03-22T10:43:51;10.18;;;3.85;;
37339;SDS011;23223;51.006;7.610;2024-03-22T10:46:17;8.48;;;4.40;;
37339;SDS011;23223;51.006;7.610;2024-03-22T10:48:45;9.32;;;4.88;;
37339;SDS011;23223;51.006;7.610;2024-03-22T10:51:11;7.70;;;3.63;;
37339;SDS011;23223;51.006;7.610;2024-03-22T10:53:38;8.27;;;3.88;;
37339;SDS011;23223;51.006;7.610;2024-03-22T10:56:04;10.50;;;6.38;;
37339;SDS011;23223;51.006;7.610;2024-03-22T10:58:31;8.85;;;5.15;;
37339;SDS011;23223;51.006;7.610;2024-03-22T11:00:57;5.45;;;4.28;;
37339;SDS011;23223;51.006;7.610;2024-03-22T11:03:24;7.28;;;4.53;;
37339;SDS011;23223;51.006;7.610;2024-03-22T11:05:53;5.07;;;2.95;;
37339;SDS011;23223;51.006;7.610;2024-03-22T11:08:27;7.05;;;4.38;;
37339;SDS011;23223;51.006;7.610;2024-03-22T11:10:56;7.18;;;4.03;;
37339;SDS011;23223;51.006;7.610;2024-03-22T11:13:22;7.07;;;4.13;;
37339;SDS011;23223;51.006;7.610;2024-03-22T11:15:51;7.72;;;4.32;;
37339;SDS011;23223;51.006;7.610;2024-03-22T11:18:17;4.85;;;3.47;;
37339;SDS011;23223;51.006;7.610;2024-03-22T11:20:43;8.32;;;2.97;;
37339;SDS011;23223;51.006;7.610;2024-03-22T11:23:12;5.38;;;2.60;;
37339;SDS011;23223;51.006;7.610;2024-03-22T11:25:38;8.00;;;3.80;;
37339;SDS011;23223;51.006;7.610;2024-03-22T11:28:04;4.90;;;3.40;;
37339;SDS011;23223;51.006;7.610;2024-03-22T11:30:30;3.40;;;2.10;;
37339;SDS011;23223;51.006;7.610;2024-03-22T11:33:00;3.88;;;2.75;;
37339;SDS011;23223;51.006;7.610;2024-03-22T11:35:26;4.60;;;2.67;;
37339;SDS011;23223;51.006;7.610;2024-03-22T11:37:52;4.25;;;3.30;;
37339;SDS011;23223;51.006;7.610;2024-03-22T11:40:18;5.32;;;2.25;;
37339;SDS011;23223;51.006;7.610;2024-03-22T11:42:47;5.75;;;3.28;;
37339;SDS011;23223;51.006;7.610;2024-03-22T11:45:17;3.78;;;2.05;;
37339;SDS011;23223;51.006;7.610;2024-03-22T11:47:44;6.05;;;3.00;;
37339;SDS011;23223;51.006;7.610;2024-03-22T11:50:14;10.95;;;3.17;;
37339;SDS011;23223;51.006;7.610;2024-03-22T11:52:41;4.43;;;2.60;;
37339;SDS011;23223;51.006;7.610;2024-03-22T11:55:07;4.45;;;2.67;;
37339;SDS011;23223;51.006;7.610;2024-03-22T11:57:33;5.65;;;3.13;;
37339;SDS011;23223;51.006;7.610;2024-03-22T11:59:59;5.28;;;2.78;;
37339;SDS011;23223;51.006;7.610;2024-03-22T12:02:25;2.97;;;2.30;;
37339;SDS011;23223;51.006;7.610;2024-03-22T12:04:51;4.22;;;2.40;;
37339;SDS011;23223;51.006;7.610;2024-03-22T12:07:17;6.70;;;3.75;;
37339;SDS011;23223;51.006;7.610;2024-03-22T12:09:43;6.38;;;2.33;;
37339;SDS011;23223;51.006;7.610;2024-03-22T12:12:12;5.93;;;3.70;;
37339;SDS011;23223;51.006;7.610;2024-03-22T12:14:38;4.18;;;2.58;;
37339;SDS011;23223;51.006;7.610;2024-03-22T12:17:05;7.05;;;4.50;;
37339;SDS011;23223;51.006;7.610;2024-03-22T12:19:31;7.32;;;4.18;;
37339;SDS011;23223;51.006;7.610;2024-03-22T12:21:57;8.45;;;2.80;;
37339;SDS011;23223;51.006;7.610;2024-03-22T12:24:23;5.22;;;3.15;;
37339;SDS011;23223;51.006;7.610;2024-03-22T12:26:49;3.65;;;2.70;;
37339;SDS011;23223;51.006;7.610;2024-03-22T12:29:15;4.57;;;3.33;;
37339;SDS011;23223;51.006;7.610;2024-03-22T12:31:42;6.15;;;2.60;;
37339;SDS011;23223;51.006;7.610;2024-03-22T12:34:08;5.93;;;2.78;;
37339;SDS011;23223;51.006;7.610;2024-03-22T12:36:34;4.35;;;3.42;;
37339;SDS011;23223;51.006;7.610;2024-03-22T12:38:59;3.60;;;2.28;;
37339;SDS011;23223;51.006;7.610;2024-03-22T12:41:25;3.63;;;1.58;;
37339;SDS011;23223;51.006;7.610;2024-03-22T12:43:52;5.38;;;2.45;;
37339;SDS011;23223;51.006;7.610;2024-03-22T12:46:17;4.82;;;2.20;;
37339;SDS011;23223;51.006;7.610;2024-03-22T12:48:43;4.65;;;2.13;;
37339;SDS011;23223;51.006;7.610;2024-03-22T12:51:09;4.07;;;2.22;;
37339;SDS011;23223;51.006;7.610;2024-03-22T12:53:34;6.88;;;2.97;;
37339;SDS011;23223;51.006;7.610;2024-03-22T12:56:00;6.28;;;3.10;;
37339;SDS011;23223;51.006;7.610;2024-03-22T12:58:26;4.43;;;1.95;;
37339;SDS011;23223;51.006;7.610;2024-03-22T13:00:51;4.88;;;3.25;;
37339;SDS011;23223;51.006;7.610;2024-03-22T13:03:17;5.38;;;3.10;;
37339;SDS011;23223;51.006;7.610;2024-03-22T13:05:42;5.70;;;2.50;;
37339;SDS011;23223;51.006;7.610;2024-03-22T13:08:08;6.47;;;2.83;;
37339;SDS011;23223;51.006;7.610;2024-03-22T13:10:34;3.55;;;2.00;;
37339;SDS011;23223;51.006;7.610;2024-03-22T13:12:59;7.43;;;2.88;;
37339;SDS011;23223;51.006;7.610;2024-03-22T13:15:26;8.30;;;2.65;;
37339;SDS011;23223;51.006;7.610;2024-03-22T13:17:51;6.13;;;2.60;;
37339;SDS011;23223;51.006;7.610;2024-03-22T13:20:21;9.60;;;2.10;;
37339;SDS011;23223;51.006;7.610;2024-03-22T13:22:47;4.05;;;1.98;;
37339;SDS011;23223;51.006;7.610;2024-03-22T13:25:12;4.07;;;2.85;;
37339;SDS011;23223;51.006;7.610;2024-03-22T13:27:38;9.82;;;3.13;;
37339;SDS011;23223;51.006;7.610;2024-03-22T13:30:04;3.17;;;1.70;;
37339;SDS011;23223;51.006;7.610;2024-03-22T13:32:30;6.00;;;2.50;;
37339;SDS011;23223;51.006;7.610;2024-03-22T13:34:56;6.65;;;2.45;;
37339;SDS011;23223;51.006;7.610;2024-03-22T13:37:22;6.88;;;2.55;;
37339;SDS011;23223;51.006;7.610;2024-03-22T13:39:48;5.93;;;2.95;;
37339;SDS011;23223;51.006;7.610;2024-03-22T13:42:14;5.70;;;3.35;;
37339;SDS011;23223;51.006;7.610;2024-03-22T13:44:41;4.90;;;2.88;;
37339;SDS011;23223;51.006;7.610;2024-03-22T13:47:07;5.43;;;3.35;;
37339;SDS011;23223;51.006;7.610;2024-03-22T13:49:32;9.25;;;3.10;;
37339;SDS011;23223;51.006;7.610;2024-03-22T13:51:58;4.95;;;3.28;;
37339;SDS011;23223;51.006;7.610;2024-03-22T13:54:24;6.22;;;3.47;;
37339;SDS011;23223;51.006;7.610;2024-03-22T13:56:50;6.90;;;3.38;;
37339;SDS011;23223;51.006;7.610;2024-03-22T13:59:15;7.22;;;2.33;;
37339;SDS011;23223;51.006;7.610;2024-03-22T14:01:41;7.25;;;4.07;;
37339;SDS011;23223;51.006;7.610;2024-03-22T14:04:10;5.20;;;3.28;;
37339;SDS011;23223;51.006;7.610;2024-03-22T14:06:36;5.95;;;3.65;;
37339;SDS011;23223;51.006;7.610;2024-03-22T14:09:03;3.40;;;2.63;;
37339;SDS011;23223;51.006;7.610;2024-03-22T14:11:30;5.70;;;3.88;;
37339;SDS011;23223;51.006;7.610;2024-03-22T14:13:56;3.50;;;3.03;;
37339;SDS011;23223;51.006;7.610;2024-03-22T14:16:22;4.45;;;2.97;;
37339;SDS011;23223;51.006;7.610;2024-03-22T14:18:48;4.20;;;3.42;;
37339;SDS011;23223;51.006;7.610;2024-03-22T14:21:14;3.92;;;2.50;;
37339;SDS011;23223;51.006;7.610;2024-03-22T14:23:44;3.40;;;2.35;;